Almo, Idaho
Current Conditions -  °F | °C
As of 4:53 PM on Thursday 18 Dec 2014 (Local Time) from KBYI Reporting Station
Clear Clear  
Wind Chill: 39°   Ceiling: Unl
Heat Index: 39°   Visibility: 10mi
Dew Point: 29°   Wind: 3mph
Humidity: 67%   Direction: 40°NE
Pressure: 30.1"   Gusts: NA
Location:  42.1°N, 113.64°W
Report Text: KBYI 182353Z AUTO 04003KT 10SM CLR 04/M02 A3010 RMK AO2 SLP213 T00391017 10067 20017 53002
Loading
Personal Weather Stations






























Interactive Weather Map New forecast layout! Learn more

10-Day Weather Forecast

Advertisements
Track Severe Weather on mobile